createdAt,value
2022-08-02T00:01:50.543Z,1.15
2022-08-02T00:04:25.280Z,1.10
2022-08-02T00:09:34.344Z,1.30
2022-08-02T00:14:46.411Z,1.10
2022-08-02T00:17:21.147Z,1.27
2022-08-02T00:22:30.204Z,1.40
2022-08-02T00:27:39.246Z,1.30
2022-08-02T00:32:50.919Z,1.70
2022-08-02T00:35:25.629Z,1.30
2022-08-02T00:40:34.771Z,1.08
2022-08-02T00:43:10.058Z,1.17
2022-08-02T00:46:02.118Z,1.30
2022-08-02T00:48:43.128Z,1.30
2022-08-02T00:51:18.628Z,1.17
2022-08-02T00:53:53.331Z,0.98
2022-08-02T00:59:02.378Z,1.13
2022-08-02T01:04:34.160Z,1.17
2022-08-02T01:07:12.549Z,0.90
2022-08-02T01:09:48.756Z,1.02
2022-08-02T01:12:23.485Z,1.02
2022-08-02T01:17:36.602Z,0.68
2022-08-02T01:20:17.991Z,0.90
2022-08-02T01:23:04.765Z,0.93
2022-08-02T01:25:48.118Z,1.10
2022-08-02T01:28:34.741Z,0.82
2022-08-02T01:31:13.596Z,0.90
2022-08-02T01:33:51.840Z,1.10
2022-08-02T01:36:27.634Z,1.00
2022-08-02T01:39:04.142Z,1.50
2022-08-02T01:41:38.984Z,1.42
2022-08-02T01:44:16.653Z,0.90
2022-08-02T01:47:04.202Z,1.00
2022-08-02T01:49:40.678Z,1.30
2022-08-02T01:52:26.401Z,1.00
2022-08-02T01:55:04.237Z,0.82
2022-08-02T01:57:41.921Z,1.00
2022-08-02T02:00:21.003Z,0.70
2022-08-02T02:02:56.353Z,0.77
2022-08-02T02:05:32.591Z,1.00
2022-08-02T02:08:10.251Z,1.25
2022-08-02T02:10:45.535Z,0.85
2022-08-02T02:13:21.607Z,1.10
2022-08-02T02:16:11.885Z,1.08
2022-08-02T02:18:48.151Z,1.20
2022-08-02T02:21:23.147Z,1.13
2022-08-02T02:23:57.934Z,1.00
2022-08-02T02:26:34.885Z,0.88
2022-08-02T02:29:11.634Z,1.10
2022-08-02T02:31:50.048Z,0.88
2022-08-02T02:34:28.413Z,1.20
2022-08-02T02:37:05.622Z,1.20
2022-08-02T02:39:41.798Z,1.10
2022-08-02T02:42:17.991Z,0.90
2022-08-02T02:44:53.264Z,1.35
2022-08-02T02:47:40.674Z,0.80
2022-08-02T02:50:16.558Z,0.90
2022-08-02T02:52:51.510Z,0.90
2022-08-02T02:55:27.423Z,0.90
2022-08-02T02:58:02.312Z,0.90
2022-08-02T03:00:49.706Z,1.20
2022-08-02T03:03:27.731Z,0.90
2022-08-02T03:06:02.519Z,0.98
2022-08-02T03:08:49.998Z,1.08
2022-08-02T03:11:24.775Z,1.10
2022-08-02T03:14:00.362Z,1.40
2022-08-02T03:16:35.063Z,1.25
2022-08-02T03:21:47.685Z,0.75
2022-08-02T03:24:30.770Z,0.63
2022-08-02T03:29:39.804Z,0.88
2022-08-02T03:34:49.130Z,0.60
2022-08-02T03:40:01.293Z,0.30
2022-08-02T03:42:35.980Z,0.28
2022-08-02T03:47:45.668Z,0.40
2022-08-02T03:50:23.129Z,0.30
2022-08-02T03:52:58.080Z,0.40
2022-08-02T03:55:36.313Z,0.30
2022-08-02T03:58:11.216Z,0.30
2022-08-02T04:00:46.023Z,0.40
2022-08-02T04:03:20.767Z,0.30
2022-08-02T04:08:39.161Z,0.47
2022-08-02T04:11:28.830Z,0.28
2022-08-02T04:14:04.624Z,0.52
2022-08-02T04:16:43.042Z,0.17
2022-08-02T04:19:20.000Z,0.30
2022-08-02T04:21:55.876Z,0.35
2022-08-02T04:24:32.363Z,0.20
2022-08-02T04:27:49.821Z,0.35
2022-08-02T04:30:09.465Z,0.20
2022-08-02T04:32:44.184Z,0.10
2022-08-02T04:38:08.194Z,0.30
2022-08-02T04:40:53.253Z,0.20
2022-08-02T04:43:31.698Z,0.25
2022-08-02T04:46:06.516Z,0.20
2022-08-02T04:48:41.247Z,0.30
2022-08-02T04:53:50.305Z,0.30
2022-08-02T04:59:02.012Z,0.55
2022-08-02T05:01:37.245Z,0.30
2022-08-02T05:04:11.959Z,0.30
2022-08-02T05:09:21.155Z,0.17
2022-08-02T05:11:55.905Z,0.20
2022-08-02T05:14:33.264Z,0.28
2022-08-02T05:17:07.977Z,0.20
2022-08-02T05:22:17.123Z,0.22
2022-08-02T05:27:26.243Z,0.10
2022-08-02T05:30:03.972Z,0.40
2022-08-02T05:32:38.739Z,0.30
2022-08-02T05:35:13.424Z,0.30
2022-08-02T05:40:25.562Z,0.40
2022-08-02T05:43:00.510Z,0.20
2022-08-02T05:48:12.232Z,0.22
2022-08-02T05:50:48.340Z,0.20
2022-08-02T05:53:27.252Z,0.30
2022-08-02T05:56:08.623Z,0.38
2022-08-02T05:58:46.964Z,0.35
2022-08-02T06:01:25.469Z,0.70
2022-08-02T06:04:04.113Z,0.40
2022-08-02T06:06:39.316Z,0.40
2022-08-02T06:09:23.077Z,0.32
2022-08-02T06:12:03.077Z,0.20
2022-08-02T06:14:39.938Z,0.40
2022-08-02T06:17:15.790Z,0.40
2022-08-02T06:19:53.898Z,0.30
2022-08-02T06:22:31.366Z,0.30
2022-08-02T06:25:11.661Z,0.60
2022-08-02T06:28:11.241Z,0.45
2022-08-02T06:30:47.233Z,0.20
2022-08-02T06:33:21.981Z,0.30
2022-08-02T06:36:03.120Z,0.30
2022-08-02T06:38:44.052Z,0.40
2022-08-02T06:41:27.408Z,0.35
2022-08-02T06:44:19.930Z,0.30
2022-08-02T06:47:11.764Z,0.38
2022-08-02T06:49:52.265Z,0.50
2022-08-02T06:52:32.415Z,0.55
2022-08-02T06:55:08.002Z,0.50
2022-08-02T06:57:42.782Z,0.60
2022-08-02T07:00:17.864Z,0.50
2022-08-02T07:02:52.749Z,0.85
2022-08-02T07:05:27.539Z,0.70
2022-08-02T07:08:07.337Z,0.85
2022-08-02T07:10:42.143Z,1.00
2022-08-02T07:13:16.930Z,0.82
2022-08-02T07:15:51.689Z,0.70
2022-08-02T07:18:26.768Z,0.63
2022-08-02T07:21:01.566Z,0.80
2022-08-02T07:23:38.851Z,0.65
2022-08-02T07:26:13.577Z,0.85
2022-08-02T07:28:48.348Z,0.57
2022-08-02T07:31:23.054Z,0.60
2022-08-02T07:36:32.156Z,0.70
2022-08-02T07:39:09.671Z,0.60
2022-08-02T07:41:46.493Z,0.50
2022-08-02T07:44:22.298Z,0.65
2022-08-02T07:46:59.460Z,0.50
2022-08-02T07:52:08.978Z,0.55
2022-08-02T07:54:47.178Z,0.43
2022-08-02T07:57:21.880Z,0.70
2022-08-02T07:59:56.601Z,0.75
2022-08-02T08:02:31.299Z,0.40
2022-08-02T08:07:42.048Z,0.40
2022-08-02T08:10:19.379Z,0.40
2022-08-02T08:12:55.813Z,0.30
2022-08-02T08:15:30.562Z,0.50
2022-08-02T08:18:05.237Z,0.50
2022-08-02T08:23:14.410Z,0.30
2022-08-02T08:25:51.714Z,0.43
2022-08-02T08:28:26.558Z,0.40
2022-08-02T08:31:01.404Z,0.13
2022-08-02T08:33:36.184Z,0.20
2022-08-02T08:36:10.954Z,0.20
2022-08-02T08:38:45.637Z,0.20
2022-08-02T08:43:57.351Z,0.40
2022-08-02T08:46:33.518Z,0.10
2022-08-02T08:49:10.250Z,0.30
2022-08-02T08:51:45.420Z,0.30
2022-08-02T08:54:20.663Z,0.35
2022-08-02T08:56:55.639Z,0.30
2022-08-02T08:59:32.928Z,0.22
2022-08-02T09:02:20.621Z,0.30
2022-08-02T09:04:57.402Z,0.20
2022-08-02T09:07:32.232Z,0.10
2022-08-02T09:10:22.181Z,0.20
2022-08-02T09:13:38.502Z,0.30
2022-08-02T09:16:12.586Z,0.30
2022-08-02T09:21:22.649Z,0.10
2022-08-02T09:23:57.605Z,0.40
2022-08-02T09:26:32.301Z,0.20
2022-08-02T09:29:09.633Z,0.10
2022-08-02T09:31:49.921Z,0.00
2022-08-02T09:34:25.933Z,0.08
2022-08-02T09:37:00.621Z,0.10
2022-08-02T09:39:47.549Z,0.10
2022-08-02T09:42:22.491Z,0.13
2022-08-02T09:45:06.494Z,0.20
2022-08-02T09:47:51.977Z,0.30
2022-08-02T09:50:26.703Z,0.10
2022-08-02T09:53:03.189Z,0.20
2022-08-02T09:55:41.077Z,0.10
2022-08-02T09:58:22.092Z,0.00
2022-08-02T10:00:59.122Z,0.15
2022-08-02T10:03:39.537Z,0.10
2022-08-02T10:06:14.729Z,0.15
2022-08-02T10:08:49.539Z,0.10
2022-08-02T10:11:24.692Z,0.10
2022-08-02T10:13:59.400Z,0.10
2022-08-02T10:16:36.263Z,0.20
2022-08-02T10:19:13.739Z,0.20
2022-08-02T10:21:49.247Z,0.10
2022-08-02T10:24:25.268Z,0.10
2022-08-02T10:27:00.824Z,0.03
2022-08-02T10:29:53.648Z,0.10
2022-08-02T10:32:32.531Z,0.05
2022-08-02T10:35:20.166Z,0.10
2022-08-02T10:38:04.064Z,0.10
2022-08-02T10:40:48.809Z,0.10
2022-08-02T10:43:38.419Z,0.08
2022-08-02T10:46:34.347Z,0.10
2022-08-02T10:52:12.285Z,0.20
2022-08-02T10:54:50.538Z,0.10
2022-08-02T10:57:31.864Z,0.30
2022-08-02T11:00:14.641Z,0.28
2022-08-02T11:02:54.520Z,0.20
2022-08-02T11:05:43.428Z,0.20
2022-08-02T11:08:25.288Z,0.10
2022-08-02T11:11:02.073Z,0.30
2022-08-02T11:13:56.728Z,0.40
2022-08-02T11:16:46.145Z,0.40
2022-08-02T11:19:20.851Z,0.50
2022-08-02T11:22:03.410Z,0.40
2022-08-02T11:24:41.236Z,0.10
2022-08-02T11:27:21.785Z,0.10
2022-08-02T11:29:56.873Z,0.00
2022-08-02T11:32:31.646Z,0.00
2022-08-02T11:35:06.845Z,0.30
2022-08-02T11:37:42.089Z,0.10
2022-08-02T11:40:20.508Z,0.17
2022-08-02T11:42:55.225Z,0.10
2022-08-02T11:45:30.193Z,0.10
2022-08-02T11:48:05.028Z,0.13
2022-08-02T11:50:39.792Z,0.20
2022-08-02T11:53:18.448Z,0.20
2022-08-02T11:55:59.907Z,0.08
2022-08-02T11:58:34.584Z,0.15
2022-08-02T12:01:09.386Z,0.20
2022-08-02T12:03:44.086Z,0.22
2022-08-02T12:06:21.113Z,0.13
2022-08-02T12:09:01.392Z,0.20
2022-08-02T12:11:39.385Z,0.20
2022-08-02T12:14:14.071Z,0.35
2022-08-02T12:17:01.525Z,0.15
2022-08-02T12:19:38.039Z,0.20
2022-08-02T12:22:14.736Z,0.10
2022-08-02T12:24:50.668Z,0.30
2022-08-02T12:27:35.015Z,0.20
2022-08-02T12:30:11.053Z,0.22
2022-08-02T12:32:46.315Z,0.32
2022-08-02T12:35:26.810Z,0.20
2022-08-02T12:38:11.963Z,0.30
2022-08-02T12:43:25.519Z,0.32
2022-08-02T12:46:00.354Z,0.35
2022-08-02T12:48:38.339Z,0.20
2022-08-02T12:51:55.464Z,0.17
2022-08-02T12:54:30.894Z,0.20
2022-08-02T12:57:16.121Z,0.10
2022-08-02T12:59:56.197Z,0.10
2022-08-02T13:02:30.909Z,0.20
2022-08-02T13:05:06.651Z,0.20
2022-08-02T13:07:41.347Z,0.20
2022-08-02T13:10:16.225Z,0.20
2022-08-02T13:12:51.028Z,0.13
2022-08-02T13:15:49.577Z,0.15
2022-08-02T13:18:23.226Z,0.30
2022-08-02T13:20:59.086Z,0.30
2022-08-02T13:23:54.311Z,0.15
2022-08-02T13:26:31.508Z,0.20
2022-08-02T13:29:06.671Z,0.13
2022-08-02T13:31:43.980Z,0.30
2022-08-02T13:34:19.241Z,0.60
2022-08-02T13:36:53.929Z,0.30
2022-08-02T13:39:28.610Z,0.22
2022-08-02T13:42:03.332Z,0.17
2022-08-02T13:44:38.168Z,0.30
2022-08-02T13:47:15.537Z,0.30
2022-08-02T13:50:10.675Z,0.20
2022-08-02T13:52:45.428Z,0.30
2022-08-02T13:55:20.207Z,0.10
2022-08-02T13:57:54.866Z,0.10
2022-08-02T14:00:34.721Z,0.45
2022-08-02T14:03:13.117Z,0.20
2022-08-02T14:05:49.065Z,0.15
2022-08-02T14:08:25.032Z,0.30
2022-08-02T14:10:59.753Z,0.30
2022-08-02T14:13:36.260Z,0.28
2022-08-02T14:16:11.148Z,0.10
2022-08-02T14:18:48.422Z,0.20
2022-08-02T14:21:23.158Z,0.10
2022-08-02T14:23:57.828Z,0.30
2022-08-02T14:26:32.600Z,0.20
2022-08-02T14:29:07.309Z,0.30
2022-08-02T14:31:44.632Z,0.20
2022-08-02T14:34:22.341Z,0.47
2022-08-02T14:36:58.077Z,0.30
2022-08-02T14:39:43.631Z,0.30
2022-08-02T14:42:28.288Z,0.40
2022-08-02T14:45:04.221Z,0.30
2022-08-02T14:47:38.997Z,0.63
2022-08-02T14:50:18.149Z,0.60
2022-08-02T14:52:52.959Z,0.32
2022-08-02T14:55:27.856Z,0.40
2022-08-02T14:58:02.522Z,0.47
2022-08-02T15:00:40.555Z,0.60
2022-08-02T15:03:16.053Z,0.40
2022-08-02T15:05:53.436Z,0.50
2022-08-02T15:08:28.638Z,0.30
2022-08-02T15:11:03.326Z,0.40
2022-08-02T15:13:41.024Z,0.60
2022-08-02T15:16:18.196Z,0.60
2022-08-02T15:18:52.903Z,0.50
2022-08-02T15:21:41.444Z,0.40
2022-08-02T15:24:16.868Z,0.30
2022-08-02T15:26:51.671Z,0.70
2022-08-02T15:29:26.371Z,0.70
2022-08-02T15:32:01.055Z,0.60
2022-08-02T15:34:35.734Z,0.50
2022-08-02T15:37:13.056Z,0.60
2022-08-02T15:39:48.072Z,0.65
2022-08-02T15:42:30.673Z,0.75
2022-08-02T15:45:08.287Z,0.63
2022-08-02T15:47:50.708Z,0.90
2022-08-02T15:50:25.519Z,0.90
2022-08-02T15:53:02.838Z,0.70
2022-08-02T15:55:40.085Z,1.00
2022-08-02T15:58:33.800Z,0.95
2022-08-02T16:01:17.358Z,1.08
2022-08-02T16:03:52.049Z,0.65
2022-08-02T16:06:26.748Z,1.00
2022-08-02T16:09:04.059Z,0.50
2022-08-02T16:11:38.789Z,0.77
2022-08-02T16:14:13.473Z,0.70
2022-08-02T16:16:48.157Z,0.60
2022-08-02T16:19:47.212Z,0.70
2022-08-02T16:22:19.177Z,0.80
2022-08-02T16:24:56.537Z,0.88
2022-08-02T16:27:31.206Z,0.70
2022-08-02T16:30:05.909Z,0.80
2022-08-02T16:32:40.581Z,0.95
2022-08-02T16:35:15.403Z,0.60
2022-08-02T16:37:50.443Z,0.63
2022-08-02T16:40:30.892Z,0.68
2022-08-02T16:43:09.223Z,0.65
2022-08-02T16:45:45.169Z,0.77
2022-08-02T16:48:20.000Z,0.70
2022-08-02T16:50:54.824Z,0.60
2022-08-02T16:53:36.970Z,0.52
2022-08-02T16:56:15.976Z,0.60
2022-08-02T16:58:51.673Z,0.73
2022-08-02T17:01:27.745Z,0.65
2022-08-02T17:04:21.027Z,0.77
2022-08-02T17:06:56.356Z,0.70
2022-08-02T17:10:02.317Z,0.80
2022-08-02T17:12:29.947Z,0.60
2022-08-02T17:16:00.800Z,0.68
2022-08-02T17:18:01.327Z,0.60
2022-08-02T17:20:35.994Z,0.75
2022-08-02T17:23:16.396Z,0.80
2022-08-02T17:25:52.890Z,0.60
2022-08-02T17:28:31.346Z,0.90
2022-08-02T17:31:09.613Z,0.63
2022-08-02T17:33:44.320Z,0.60
2022-08-02T17:36:19.843Z,0.60
2022-08-02T17:38:56.677Z,0.60
2022-08-02T17:41:37.999Z,0.70
2022-08-02T17:44:16.405Z,0.57
2022-08-02T17:50:09.326Z,0.50
2022-08-02T17:52:49.976Z,0.70
2022-08-02T17:55:27.795Z,0.70
2022-08-02T17:58:05.876Z,0.45
2022-08-02T18:00:50.290Z,0.60
2022-08-02T18:03:25.412Z,0.60
2022-08-02T18:06:00.308Z,0.40
2022-08-02T18:08:35.133Z,0.60
2022-08-02T18:11:09.840Z,0.52
2022-08-02T18:13:44.551Z,0.75
2022-08-02T18:16:30.740Z,0.55
2022-08-02T18:19:05.481Z,0.60
2022-08-02T18:21:51.444Z,0.40
2022-08-02T18:27:00.482Z,0.50
2022-08-02T18:29:38.438Z,0.50
2022-08-02T18:32:16.108Z,0.60
2022-08-02T18:35:10.933Z,0.60
2022-08-02T18:37:50.312Z,0.55
2022-08-02T18:40:31.863Z,0.40
2022-08-02T18:43:08.197Z,0.63
2022-08-02T18:46:05.867Z,0.60
2022-08-02T18:48:44.173Z,0.40
2022-08-02T18:51:21.633Z,0.40
2022-08-02T18:53:58.402Z,0.40
2022-08-02T18:59:07.846Z,0.52
2022-08-02T19:01:50.243Z,0.30
2022-08-02T19:04:28.302Z,0.50
2022-08-02T19:07:08.258Z,0.50
2022-08-02T19:09:43.092Z,0.57
2022-08-02T19:15:00.963Z,0.55
2022-08-02T19:17:55.276Z,0.63
2022-08-02T19:20:34.479Z,0.50
2022-08-02T19:23:10.577Z,0.68
2022-08-02T19:25:54.608Z,0.50
2022-08-02T19:28:29.553Z,0.60
2022-08-02T19:31:04.714Z,0.52
2022-08-02T19:34:06.190Z,0.80
2022-08-02T19:36:36.881Z,0.52
2022-08-02T19:39:16.825Z,0.50
2022-08-02T19:41:52.602Z,0.50
2022-08-02T19:44:29.533Z,0.47
2022-08-02T19:47:04.624Z,0.40
2022-08-02T19:52:44.850Z,0.60
2022-08-02T19:56:00.187Z,0.45
2022-08-02T19:58:14.233Z,0.77
2022-08-02T20:00:48.945Z,0.63
2022-08-02T20:03:51.036Z,0.68
2022-08-02T20:06:18.700Z,0.70
2022-08-02T20:08:58.928Z,0.45
2022-08-02T20:11:35.037Z,0.60
2022-08-02T20:14:10.493Z,0.77
2022-08-02T20:16:48.065Z,0.70
2022-08-02T20:19:24.751Z,0.70
2022-08-02T20:27:16.569Z,0.70
2022-08-02T20:29:52.047Z,0.82
2022-08-02T20:35:01.085Z,0.73
2022-08-02T20:40:30.580Z,0.80
2022-08-02T20:43:14.400Z,0.80
2022-08-02T20:45:52.997Z,0.80
2022-08-02T20:48:29.933Z,0.60
2022-08-02T20:51:09.821Z,0.90
2022-08-02T20:53:56.110Z,0.70
2022-08-02T20:56:31.241Z,0.70
2022-08-02T20:59:15.755Z,0.77
2022-08-02T21:04:32.334Z,0.70
2022-08-02T21:07:12.917Z,0.70
2022-08-02T21:09:53.484Z,0.95
2022-08-02T21:12:29.995Z,0.80
2022-08-02T21:15:08.059Z,0.73
2022-08-02T21:17:58.118Z,0.68
2022-08-02T21:20:36.331Z,0.82
2022-08-02T21:23:19.929Z,1.17
2022-08-02T21:25:56.869Z,1.05
2022-08-02T21:28:38.289Z,0.95
2022-08-02T21:31:21.374Z,0.80
2022-08-02T21:33:59.343Z,0.82
2022-08-02T21:36:34.902Z,1.00
2022-08-02T21:41:46.442Z,1.13
2022-08-02T21:44:39.250Z,1.00
2022-08-02T21:47:25.359Z,0.90
2022-08-02T21:50:12.734Z,0.98
2022-08-02T21:52:52.159Z,0.93
2022-08-02T21:56:00.127Z,1.48
2022-08-02T21:58:22.196Z,1.17
2022-08-02T22:00:58.479Z,1.20
2022-08-02T22:03:35.940Z,1.08
2022-08-02T22:06:12.418Z,1.30
2022-08-02T22:08:47.168Z,1.40
2022-08-02T22:11:22.600Z,1.25
2022-08-02T22:13:58.435Z,1.30
2022-08-02T22:16:35.618Z,1.40
2022-08-02T22:19:13.697Z,1.00
2022-08-02T22:24:43.520Z,1.20
2022-08-02T22:29:52.737Z,0.95
2022-08-02T22:32:39.821Z,0.98
2022-08-02T22:35:17.321Z,1.10
2022-08-02T22:38:16.263Z,1.35
2022-08-02T22:40:46.743Z,1.00
2022-08-02T22:43:22.901Z,1.20
2022-08-02T22:45:58.151Z,1.27
2022-08-02T22:51:09.809Z,1.30
2022-08-02T22:53:44.653Z,0.95
2022-08-02T22:56:20.258Z,1.30
2022-08-02T22:58:40.417Z,0.50
2022-08-02T22:58:53.394Z,0.50
2022-08-02T22:59:12.257Z,1.10
2022-08-02T23:01:50.636Z,1.15
2022-08-02T23:04:28.559Z,1.30
2022-08-02T23:09:40.468Z,1.40
2022-08-02T23:12:19.261Z,1.45
2022-08-02T23:14:54.657Z,1.50
2022-08-02T23:17:56.788Z,1.45
2022-08-02T23:20:31.547Z,1.35
2022-08-02T23:23:11.472Z,1.88
2022-08-02T23:25:49.200Z,1.40
2022-08-02T23:28:23.878Z,1.95
2022-08-02T23:33:32.921Z,1.48
2022-08-02T23:38:41.980Z,1.58
2022-08-02T23:41:19.261Z,1.65
2022-08-02T23:44:12.533Z,1.80
2022-08-02T23:46:48.555Z,1.77
2022-08-02T23:49:23.384Z,1.92
2022-08-02T23:52:01.753Z,1.67
2022-08-02T23:54:36.923Z,1.75
2022-08-02T23:57:20.390Z,1.92
2022-08-02T23:59:55.900Z,1.60
